Time;durP1;ratioP1;P1;durP2;ratioP2;P2;SDS_P1;SDS_P2;PMS_P1;PMS_P2;Temp;Humidity;BMP_temperature;BMP_pressure;BME280_temperature;BME280_humidity;BME280_pressure;Samples;Min_cycle;Max_cycle;Signal;HPM_P1;HPM_P2
2023/08/11 00:00:25;;;;;;;2.13;1.95;;;27.80;43.90;;;;;;5033078;28;20370;-67
2023/08/11 00:02:52;;;;;;;3.17;2.22;;;27.90;43.90;;;;;;5014895;28;20473;-68
2023/08/11 00:05:19;;;;;;;2.75;2.13;;;27.90;43.90;;;;;;5032537;28;20102;-68
2023/08/11 00:07:50;;;;;;;3.72;2.15;;;28.10;44.60;;;;;;5032499;28;20493;-67
2023/08/11 00:10:24;;;;;;;4.07;1.90;;;27.90;44.10;;;;;;5032581;28;20075;-68
2023/08/11 00:12:51;;;;;;;2.47;2.10;;;27.90;44.10;;;;;;5032495;28;20069;-68
2023/08/11 00:15:18;;;;;;;4.97;1.95;;;27.90;44.20;;;;;;5032651;28;20063;-68
2023/08/11 00:17:53;;;;;;;3.05;1.67;;;27.90;44.20;;;;;;5032221;28;20091;-68
2023/08/11 00:20:20;;;;;;;2.40;2.03;;;28.00;44.80;;;;;;5032550;28;20032;-68
2023/08/11 00:22:46;;;;;;;2.60;1.70;;;28.10;44.70;;;;;;5032726;28;20483;-68
2023/08/11 00:25:12;;;;;;;2.13;1.90;;;28.00;44.80;;;;;;5032202;28;20500;-68
2023/08/11 00:27:41;;;;;;;2.38;1.73;;;28.00;44.90;;;;;;5031800;28;20484;-67
2023/08/11 00:30:09;;;;;;;2.95;1.98;;;28.00;44.90;;;;;;5030683;28;20383;-67
2023/08/11 00:32:35;;;;;;;2.67;1.98;;;28.00;44.90;;;;;;5032439;28;20033;-68
2023/08/11 00:35:02;;;;;;;3.05;2.25;;;27.90;44.40;;;;;;5012998;28;20068;-68
2023/08/11 00:37:28;;;;;;;2.03;1.77;;;28.00;45.00;;;;;;5032376;28;20041;-67
2023/08/11 00:39:54;;;;;;;2.45;2.00;;;27.90;44.50;;;;;;5031888;28;20473;-67
2023/08/11 00:42:20;;;;;;;3.53;1.90;;;27.90;44.50;;;;;;5032353;28;20021;-68
2023/08/11 00:44:47;;;;;;;5.07;2.30;;;27.90;44.60;;;;;;5014403;28;20037;-68
2023/08/11 00:47:13;;;;;;;2.10;1.75;;;28.00;45.10;;;;;;5030699;28;20126;-68
2023/08/11 00:49:40;;;;;;;2.60;1.65;;;28.00;45.20;;;;;;5030547;28;20370;-68
2023/08/11 00:52:06;;;;;;;3.95;1.83;;;27.90;44.70;;;;;;5014226;28;20059;-67
2023/08/11 00:54:33;;;;;;;1.98;1.60;;;28.00;45.30;;;;;;5031794;28;20044;-67
2023/08/11 00:57:00;;;;;;;1.70;1.60;;;27.90;44.80;;;;;;5031860;28;20037;-69
2023/08/11 00:59:26;;;;;;;2.97;1.60;;;27.90;44.80;;;;;;5031685;28;20120;-68
2023/08/11 01:01:52;;;;;;;3.50;2.00;;;27.90;44.90;;;;;;5030433;28;20060;-68
2023/08/11 01:04:21;;;;;;;2.50;1.95;;;28.00;45.40;;;;;;5031661;28;20473;-68
2023/08/11 01:07:02;;;;;;;5.03;2.05;;;27.90;45.00;;;;;;5031127;28;20045;-68
2023/08/11 01:09:49;;;;;;;3.80;2.00;;;27.90;45.00;;;;;;5029977;28;20452;-68
2023/08/11 01:12:32;;;;;;;2.97;1.80;;;27.90;45.00;;;;;;5030187;28;20354;-68
2023/08/11 01:15:06;;;;;;;2.97;2.13;;;27.90;44.90;;;;;;5030196;28;20061;-68
2023/08/11 01:17:33;;;;;;;1.58;1.48;;;27.90;45.00;;;;;;5030576;28;20021;-68
2023/08/11 01:20:00;;;;;;;2.00;1.80;;;27.80;45.00;;;;;;5031330;28;20033;-67
2023/08/11 01:22:30;;;;;;;2.00;1.80;;;27.80;44.90;;;;;;5031547;28;20029;-68
2023/08/11 01:24:56;;;;;;;2.55;2.10;;;27.90;44.90;;;;;;5031526;28;20037;-67
2023/08/11 01:27:24;;;;;;;3.58;1.67;;;27.80;44.90;;;;;;5013688;28;20477;-68
2023/08/11 01:29:52;;;;;;;2.65;2.03;;;27.80;45.00;;;;;;5013290;28;20037;-67
2023/08/11 01:32:31;;;;;;;2.47;2.00;;;27.80;45.00;;;;;;5030182;28;20033;-68
2023/08/11 01:34:58;;;;;;;2.35;1.60;;;27.90;44.90;;;;;;5029778;28;20041;-68
2023/08/11 01:37:24;;;;;;;3.83;2.20;;;28.00;45.50;;;;;;5048107;28;20503;-68
2023/08/11 01:39:50;;;;;;;2.80;1.80;;;27.90;45.00;;;;;;5031275;28;20060;-68
2023/08/11 01:42:16;;;;;;;2.88;2.17;;;27.80;45.10;;;;;;5048436;28;20041;-69
2023/08/11 01:44:43;;;;;;;2.65;2.00;;;27.80;45.10;;;;;;5048609;28;20056;-68
2023/08/11 01:47:30;;;;;;;3.30;1.63;;;27.80;45.10;;;;;;5033971;28;20204;-68
2023/08/11 01:49:56;;;;;;;4.85;1.98;;;27.80;45.10;;;;;;5048281;28;20044;-68
2023/08/11 01:52:24;;;;;;;5.63;1.75;;;27.80;45.20;;;;;;5048412;28;20128;-67
2023/08/11 01:55:04;;;;;;;3.33;1.63;;;27.80;45.20;;;;;;5048583;28;20037;-68
2023/08/11 01:57:30;;;;;;;1.83;1.50;;;27.80;45.20;;;;;;5031840;28;20064;-68
2023/08/11 01:59:57;;;;;;;1.67;1.58;;;27.80;45.20;;;;;;5048418;28;20064;-67
2023/08/11 02:02:23;;;;;;;1.50;1.40;;;27.80;45.20;;;;;;5031813;28;20117;-68
2023/08/11 02:04:49;;;;;;;2.53;1.95;;;27.80;45.20;;;;;;5032082;28;20191;-68
2023/08/11 02:07:18;;;;;;;5.15;2.40;;;27.70;45.30;;;;;;5047375;28;20148;-68
2023/08/11 02:09:44;;;;;;;5.15;1.88;;;27.80;45.20;;;;;;5030838;28;20050;-68
2023/08/11 02:12:10;;;;;;;2.08;1.88;;;27.90;45.30;;;;;;5029696;28;20367;-68
2023/08/11 02:14:38;;;;;;;2.63;1.52;;;27.90;45.30;;;;;;5029462;28;20041;-68
2023/08/11 02:17:04;;;;;;;2.15;1.95;;;27.90;45.30;;;;;;5030850;28;20032;-67
2023/08/11 02:19:30;;;;;;;3.08;1.52;;;27.80;45.30;;;;;;5030600;28;20095;-68
2023/08/11 02:21:56;;;;;;;1.83;1.67;;;27.80;45.30;;;;;;5030832;28;20045;-68
2023/08/11 02:24:23;;;;;;;1.98;1.70;;;27.90;45.30;;;;;;5030705;28;20064;-69
2023/08/11 02:26:49;;;;;;;2.13;1.63;;;27.80;45.30;;;;;;5030585;28;20048;-68
2023/08/11 02:29:15;;;;;;;3.50;1.77;;;27.90;45.30;;;;;;5029263;28;20029;-68
2023/08/11 02:31:41;;;;;;;4.45;2.20;;;27.80;45.40;;;;;;5030852;28;20397;-67
2023/08/11 02:34:08;;;;;;;2.55;1.92;;;27.70;45.40;;;;;;5020428;28;20104;-68
2023/08/11 02:36:36;;;;;;;2.30;1.80;;;27.90;45.50;;;;;;5010903;28;20072;-68
2023/08/11 02:39:05;;;;;;;3.00;2.03;;;27.70;45.50;;;;;;5010688;28;20041;-68
2023/08/11 02:41:31;;;;;;;1.88;1.70;;;27.70;45.50;;;;;;5010915;28;20041;-68
2023/08/11 02:43:58;;;;;;;2.00;1.58;;;27.80;45.50;;;;;;5009630;28;20022;-67
2023/08/11 02:46:24;;;;;;;2.80;1.90;;;27.90;45.50;;;;;;5009727;28;20206;-67
2023/08/11 02:48:50;;;;;;;2.60;1.90;;;27.90;45.50;;;;;;5009329;28;20037;-68
2023/08/11 02:51:16;;;;;;;3.13;1.73;;;27.90;45.50;;;;;;4996655;28;20042;-66
2023/08/11 02:53:43;;;;;;;2.03;1.83;;;27.90;45.50;;;;;;5014444;28;20038;-68
2023/08/11 02:56:11;;;;;;;1.70;1.60;;;27.80;45.60;;;;;;5014212;28;20033;-68
2023/08/11 02:58:37;;;;;;;2.38;1.60;;;27.70;45.60;;;;;;5014322;28;20057;-67
2023/08/11 03:01:03;;;;;;;4.03;1.70;;;27.80;45.50;;;;;;5014429;28;20054;-68
2023/08/11 03:03:30;;;;;;;2.92;1.92;;;27.90;45.60;;;;;;5012891;28;20534;-68
2023/08/11 03:05:56;;;;;;;4.53;2.08;;;27.70;45.60;;;;;;5012900;28;20440;-68
2023/08/11 03:08:23;;;;;;;1.80;1.70;;;27.70;45.60;;;;;;5014260;28;20050;-68
2023/08/11 03:10:49;;;;;;;3.20;1.52;;;27.80;45.60;;;;;;5012728;28;20034;-68
2023/08/11 03:13:16;;;;;;;1.63;1.52;;;27.80;45.60;;;;;;4996513;28;20034;-68
2023/08/11 03:15:43;;;;;;;3.40;1.67;;;27.80;45.50;;;;;;5014100;28;20113;-68
2023/08/11 03:18:10;;;;;;;2.55;1.90;;;27.80;45.60;;;;;;5014118;28;20038;-67
2023/08/11 03:20:52;;;;;;;1.75;1.55;;;27.80;45.60;;;;;;5013711;28;20041;-66
2023/08/11 03:23:19;;;;;;;2.38;1.70;;;27.70;45.70;;;;;;5004241;28;20033;-68
2023/08/11 03:25:45;;;;;;;1.73;1.63;;;27.60;45.80;;;;;;5012467;28;20076;-67
2023/08/11 03:28:13;;;;;;;1.80;1.70;;;27.80;45.80;;;;;;5012306;28;20045;-68
2023/08/11 03:30:41;;;;;;;2.17;1.60;;;27.70;45.80;;;;;;5012250;28;20473;-68
2023/08/11 03:33:08;;;;;;;3.40;1.90;;;27.80;45.80;;;;;;4997574;28;20575;-68
2023/08/11 03:35:48;;;;;;;1.95;1.75;;;27.70;45.80;;;;;;5033644;28;20040;-68
2023/08/11 03:38:30;;;;;;;1.83;1.50;;;27.80;45.80;;;;;;4998183;28;20045;-68
2023/08/11 03:40:56;;;;;;;2.50;1.65;;;27.80;45.80;;;;;;5015405;28;20048;-65
2023/08/11 03:43:22;;;;;;;2.13;1.88;;;27.80;45.80;;;;;;5032799;28;20089;-65
2023/08/11 03:45:51;;;;;;;4.38;2.08;;;27.80;45.60;;;;;;5015483;28;20045;-64
2023/08/11 03:48:18;;;;;;;2.88;2.00;;;27.70;45.00;;;;;;5031888;28;20072;-66
2023/08/11 03:50:45;;;;;;;2.53;1.88;;;27.80;44.50;;;;;;5033153;28;20037;-65
2023/08/11 03:53:13;;;;;;;3.08;2.42;;;27.70;43.90;;;;;;5015336;28;20068;-65
2023/08/11 03:55:43;;;;;;;2.90;2.60;;;27.80;43.30;;;;;;5032887;28;20037;-65
2023/08/11 03:58:09;;;;;;;3.75;2.30;;;27.60;43.10;;;;;;5031604;28;20037;-65
2023/08/11 04:00:36;;;;;;;3.92;2.83;;;27.70;43.30;;;;;;5031212;28;20109;-65
2023/08/11 04:03:10;;;;;;;3.35;2.25;;;27.80;43.20;;;;;;5031397;28;20140;-66
2023/08/11 04:05:38;;;;;;;9.95;3.22;;;27.80;45.10;;;;;;5031339;28;20037;-65
2023/08/11 04:08:04;;;;;;;5.28;2.60;;;27.90;45.00;;;;;;5031177;28;20037;-65
2023/08/11 04:10:31;;;;;;;3.58;2.70;;;28.00;44.90;;;;;;5014410;28;20079;-66
2023/08/11 04:12:57;;;;;;;5.53;3.55;;;28.00;46.70;;;;;;5014738;28;20037;-66
2023/08/11 04:15:24;;;;;;;3.75;2.40;;;28.00;45.50;;;;;;5032603;28;20045;-65
2023/08/11 04:17:52;;;;;;;4.05;2.80;;;27.90;43.60;;;;;;5032315;28;20034;-65
2023/08/11 04:20:18;;;;;;;3.97;2.72;;;27.80;43.60;;;;;;5013200;28;20046;-66
2023/08/11 04:22:44;;;;;;;4.70;2.58;;;27.90;43.40;;;;;;5032806;28;20041;-66
2023/08/11 04:25:12;;;;;;;4.57;2.33;;;27.80;43.70;;;;;;4997277;28;20178;-66
2023/08/11 04:27:42;;;;;;;3.38;2.63;;;27.70;44.10;;;;;;5031118;28;20068;-65
2023/08/11 04:30:10;;;;;;;5.03;2.83;;;27.70;44.20;;;;;;5030980;28;20049;-64
2023/08/11 04:32:38;;;;;;;5.50;2.63;;;27.50;44.10;;;;;;5030953;28;20129;-65
2023/08/11 04:35:07;;;;;;;5.32;3.40;;;27.60;44.00;;;;;;5031084;28;20057;-64
2023/08/11 04:37:38;;;;;;;7.15;3.28;;;27.50;44.00;;;;;;5031932;28;20033;-65
2023/08/11 04:40:09;;;;;;;6.97;3.38;;;27.40;43.90;;;;;;5032042;28;20083;-65
2023/08/11 04:42:35;;;;;;;3.47;2.88;;;27.50;44.30;;;;;;5030652;28;20033;-66
2023/08/11 04:45:01;;;;;;;5.30;3.30;;;27.60;44.70;;;;;;5014146;28;20064;-63
2023/08/11 04:47:29;;;;;;;5.35;2.97;;;27.60;44.80;;;;;;5014007;28;20037;-63
2023/08/11 04:49:57;;;;;;;7.50;4.10;;;27.70;44.20;;;;;;5030377;28;20041;-64
2023/08/11 04:52:23;;;;;;;5.45;3.83;;;27.60;43.90;;;;;;5030444;28;20048;-62
2023/08/11 04:54:50;;;;;;;5.00;3.85;;;27.50;43.80;;;;;;5030751;28;20060;-64
2023/08/11 04:57:20;;;;;;;8.70;3.85;;;27.60;44.00;;;;;;5030360;28;20045;-64
2023/08/11 04:59:48;;;;;;;6.65;4.25;;;27.60;44.20;;;;;;5030315;28;20040;-65
2023/08/11 05:02:14;;;;;;;8.48;3.33;;;27.50;44.30;;;;;;5013008;28;20128;-65
2023/08/11 05:04:40;;;;;;;4.72;3.45;;;27.60;45.50;;;;;;5012613;28;20073;-66
2023/08/11 05:07:07;;;;;;;6.05;3.65;;;27.50;45.80;;;;;;5031952;28;20523;-66
2023/08/11 05:09:35;;;;;;;4.88;3.40;;;27.60;46.30;;;;;;5031380;28;20037;-65
2023/08/11 05:12:02;;;;;;;8.18;3.80;;;27.70;46.60;;;;;;5031529;28;20033;-65
2023/08/11 05:14:28;;;;;;;7.75;3.65;;;27.70;46.80;;;;;;5030692;28;20120;-65
2023/08/11 05:16:55;;;;;;;6.60;3.42;;;27.70;46.90;;;;;;5031491;28;20029;-65
2023/08/11 05:19:21;;;;;;;6.63;3.78;;;27.70;47.60;;;;;;5031160;28;20120;-66
2023/08/11 05:21:47;;;;;;;7.50;4.00;;;27.70;47.10;;;;;;5031484;28;20124;-65
2023/08/11 05:24:14;;;;;;;4.20;3.38;;;27.70;47.90;;;;;;5031790;28;20025;-65
2023/08/11 05:26:40;;;;;;;4.35;3.58;;;27.80;47.40;;;;;;5012585;28;20058;-65
2023/08/11 05:29:06;;;;;;;5.57;3.78;;;27.70;48.10;;;;;;5031151;28;20386;-65
2023/08/11 05:31:33;;;;;;;6.75;3.88;;;27.80;48.00;;;;;;5030927;28;20038;-66
2023/08/11 05:33:59;;;;;;;7.90;3.50;;;27.90;47.20;;;;;;5031224;28;20056;-65
2023/08/11 05:36:26;;;;;;;8.88;4.35;;;27.80;47.10;;;;;;5030990;28;20069;-66
2023/08/11 05:38:53;;;;;;;3.78;3.30;;;27.90;47.40;;;;;;5030938;28;20527;-66
2023/08/11 05:41:19;;;;;;;6.03;3.92;;;27.80;47.20;;;;;;5030879;28;20433;-65
2023/08/11 05:43:45;;;;;;;7.25;3.75;;;27.90;47.70;;;;;;5030939;28;20119;-65
2023/08/11 05:46:11;;;;;;;6.18;4.00;;;27.90;47.80;;;;;;5031037;28;20063;-66
2023/08/11 05:48:37;;;;;;;5.10;3.60;;;27.90;47.70;;;;;;5030875;28;20103;-65
2023/08/11 05:51:04;;;;;;;5.57;3.20;;;27.90;47.90;;;;;;5030755;28;20099;-65
2023/08/11 05:53:30;;;;;;;6.95;3.45;;;27.80;48.10;;;;;;5031001;28;20033;-65
2023/08/11 05:55:57;;;;;;;7.97;3.85;;;27.90;48.10;;;;;;5030915;28;20029;-64
2023/08/11 05:58:26;;;;;;;7.18;4.05;;;27.90;48.10;;;;;;5030527;28;20037;-64
2023/08/11 06:00:52;;;;;;;4.97;3.58;;;28.00;48.70;;;;;;5030333;28;20041;-65
2023/08/11 06:03:30;;;;;;;4.20;3.03;;;27.90;48.10;;;;;;5030923;28;20029;-64
2023/08/11 06:06:06;;;;;;;7.25;3.47;;;28.00;48.90;;;;;;5030717;28;20053;-64
2023/08/11 06:08:34;;;;;;;3.72;3.00;;;28.00;48.30;;;;;;5030703;28;20053;-65
2023/08/11 06:11:00;;;;;;;13.85;3.83;;;28.00;47.00;;;;;;5030711;28;20045;-65
2023/08/11 06:13:27;;;;;;;4.30;3.00;;;27.90;46.50;;;;;;4995657;28;20044;-66
2023/08/11 06:15:53;;;;;;;4.70;3.40;;;28.00;47.00;;;;;;5031177;28;20097;-65
2023/08/11 06:18:19;;;;;;;5.53;3.60;;;28.00;47.10;;;;;;5030622;28;20029;-65
2023/08/11 06:20:45;;;;;;;4.50;3.30;;;28.20;47.20;;;;;;5030903;28;20453;-66
2023/08/11 06:23:12;;;;;;;6.95;4.10;;;27.90;46.30;;;;;;5030594;28;20056;-68
2023/08/11 06:25:38;;;;;;;4.13;3.17;;;28.00;46.50;;;;;;5015815;28;20500;-64
2023/08/11 06:28:04;;;;;;;4.40;3.25;;;28.00;46.70;;;;;;4999524;28;20440;-64
2023/08/11 06:30:39;;;;;;;3.40;3.10;;;28.10;46.60;;;;;;5034644;28;20063;-66
2023/08/11 06:33:05;;;;;;;5.70;3.10;;;28.00;46.40;;;;;;5015267;28;20044;-66
2023/08/11 06:35:32;;;;;;;3.88;3.15;;;27.90;45.90;;;;;;5034076;28;20168;-66
2023/08/11 06:37:59;;;;;;;5.38;3.53;;;27.90;46.10;;;;;;5034458;28;20038;-66
2023/08/11 06:40:25;;;;;;;4.80;2.88;;;27.90;46.00;;;;;;4998961;28;20103;-67
2023/08/11 06:42:52;;;;;;;3.67;3.08;;;27.90;46.00;;;;;;5034437;28;20057;-66
2023/08/11 06:45:19;;;;;;;8.23;3.60;;;27.90;45.90;;;;;;5016727;28;20049;-66
2023/08/11 06:47:45;;;;;;;4.55;3.47;;;27.90;46.70;;;;;;5034058;28;20033;-66
2023/08/11 06:50:11;;;;;;;3.20;2.85;;;27.80;46.90;;;;;;5033738;28;20115;-67
2023/08/11 06:52:38;;;;;;;9.30;3.50;;;27.80;47.00;;;;;;5034147;28;20465;-66
2023/08/11 06:55:07;;;;;;;5.22;3.33;;;27.80;46.90;;;;;;5033659;28;20531;-66
2023/08/11 06:57:33;;;;;;;7.15;3.65;;;27.80;46.90;;;;;;5034123;28;20075;-67
2023/08/11 07:00:00;;;;;;;6.13;3.33;;;28.00;47.50;;;;;;5034114;28;20033;-65
2023/08/11 07:02:26;;;;;;;9.07;3.45;;;27.90;47.00;;;;;;5033624;28;20041;-66
2023/08/11 07:04:52;;;;;;;5.13;4.00;;;27.90;46.90;;;;;;5032652;28;20041;-67
2023/08/11 07:07:18;;;;;;;3.58;2.90;;;27.80;46.80;;;;;;5033606;28;20477;-66
2023/08/11 07:09:44;;;;;;;4.57;3.47;;;27.90;46.80;;;;;;5033643;28;20057;-65
2023/08/11 07:12:10;;;;;;;4.80;3.15;;;27.90;46.80;;;;;;5033591;28;20508;-65
2023/08/11 07:14:36;;;;;;;3.63;2.90;;;27.90;46.70;;;;;;4998680;28;20106;-65
2023/08/11 07:17:03;;;;;;;3.65;3.00;;;27.90;46.50;;;;;;5033515;28;20033;-65
2023/08/11 07:19:29;;;;;;;3.17;2.88;;;27.80;46.40;;;;;;5033535;28;20076;-69
2023/08/11 07:21:55;;;;;;;6.05;3.10;;;27.90;46.30;;;;;;5033447;28;20029;-66
2023/08/11 07:24:21;;;;;;;5.07;3.22;;;27.90;46.10;;;;;;5015160;28;20120;-67
2023/08/11 07:26:47;;;;;;;2.70;2.45;;;27.80;46.00;;;;;;4966128;28;20099;-67
2023/08/11 07:29:13;;;;;;;4.50;3.28;;;27.90;46.10;;;;;;5033523;28;20045;-65
2023/08/11 07:31:40;;;;;;;6.22;3.70;;;27.90;46.50;;;;;;5033116;28;20393;-63
2023/08/11 07:34:06;;;;;;;3.88;3.17;;;27.90;46.30;;;;;;5030576;28;20077;-64
2023/08/11 07:36:32;;;;;;;6.05;3.25;;;27.80;46.30;;;;;;5032001;28;20061;-65
2023/08/11 07:38:58;;;;;;;5.43;3.20;;;27.70;46.30;;;;;;5033164;28;20026;-65
2023/08/11 07:41:24;;;;;;;3.92;3.25;;;27.90;46.30;;;;;;5014126;28;20060;-64
2023/08/11 07:43:50;;;;;;;3.60;3.25;;;27.90;46.30;;;;;;5033166;28;20041;-65
2023/08/11 07:46:17;;;;;;;4.10;2.90;;;27.90;46.40;;;;;;5032867;28;20160;-65
2023/08/11 07:48:43;;;;;;;4.78;3.60;;;27.80;46.50;;;;;;5033286;28;20227;-64
2023/08/11 07:51:09;;;;;;;7.40;4.00;;;27.80;46.80;;;;;;5032927;28;20106;-66
2023/08/11 07:53:55;;;;;;;5.68;3.72;;;27.80;47.00;;;;;;5033141;28;20072;-70
2023/08/11 07:56:24;;;;;;;6.32;3.55;;;27.80;46.90;;;;;;4982501;28;20508;-70
2023/08/11 07:58:52;;;;;;;6.88;4.50;;;27.80;46.90;;;;;;5032997;28;20056;-69
2023/08/11 08:01:19;;;;;;;4.18;3.53;;;27.80;47.00;;;;;;5032724;28;20041;-70
2023/08/11 08:03:45;;;;;;;4.88;3.42;;;27.80;47.00;;;;;;5032794;28;20061;-69
2023/08/11 08:06:12;;;;;;;4.57;1.58;;;27.80;47.20;;;;;;5032615;28;20033;-70
2023/08/11 08:08:38;;;;;;;4.75;3.28;;;27.80;47.20;;;;;;5032907;28;20040;-70
2023/08/11 08:11:04;;;;;;;4.28;3.03;;;27.80;47.20;;;;;;5032608;28;20049;-70
2023/08/11 08:13:31;;;;;;;8.10;3.67;;;27.80;47.20;;;;;;5032833;28;20040;-69
2023/08/11 08:15:57;;;;;;;7.63;3.25;;;27.80;47.20;;;;;;5032407;28;20036;-70
2023/08/11 08:18:23;;;;;;;6.72;2.97;;;27.90;47.30;;;;;;5032341;28;20091;-70
2023/08/11 08:20:50;;;;;;;5.60;2.80;;;27.80;47.30;;;;;;5032328;28;20029;-69
2023/08/11 08:23:17;;;;;;;4.10;3.40;;;27.80;47.40;;;;;;5032389;28;20120;-68
2023/08/11 08:25:43;;;;;;;3.85;2.83;;;27.80;47.40;;;;;;5032399;28;20121;-77
2023/08/11 08:28:11;;;;;;;7.07;3.08;;;27.70;47.50;;;;;;5032467;28;20045;-68
2023/08/11 08:30:37;;;;;;;3.28;2.90;;;27.70;47.70;;;;;;5032027;28;20033;-69
2023/08/11 08:33:05;;;;;;;3.75;2.85;;;27.80;48.00;;;;;;5031907;28;20038;-68
2023/08/11 08:35:31;;;;;;;4.78;3.35;;;27.80;48.00;;;;;;5031030;28;20121;-71
2023/08/11 08:37:58;;;;;;;8.60;3.00;;;27.80;48.00;;;;;;5014473;28;20076;-72
2023/08/11 08:40:26;;;;;;;4.10;2.67;;;27.80;47.80;;;;;;5031933;28;20033;-69
2023/08/11 08:43:02;;;;;;;5.72;2.40;;;27.80;49.80;;;;;;5032035;28;20033;-70
2023/08/11 08:45:31;;;;;;;4.15;2.50;;;27.80;49.60;;;;;;5031876;28;20037;-70
2023/08/11 08:47:59;;;;;;;7.15;3.10;;;28.00;49.40;;;;;;5031546;28;20043;-69
2023/08/11 08:50:25;;;;;;;3.47;2.30;;;28.00;50.10;;;;;;5031841;28;20091;-70
2023/08/11 08:52:53;;;;;;;5.75;3.28;;;28.00;52.40;;;;;;5031633;28;20083;-69
2023/08/11 08:55:19;;;;;;;4.57;3.08;;;28.30;50.40;;;;;;5031996;28;20037;-70
2023/08/11 08:57:47;;;;;;;3.03;2.75;;;28.20;48.20;;;;;;5031782;28;20037;-70
2023/08/11 09:00:14;;;;;;;4.00;2.47;;;28.10;48.30;;;;;;5031728;28;20068;-72
2023/08/11 09:02:42;;;;;;;2.88;2.60;;;28.00;48.00;;;;;;5031686;28;20072;-70
2023/08/11 09:05:08;;;;;;;3.35;2.58;;;28.10;48.00;;;;;;5031229;28;20382;-73
2023/08/11 09:07:34;;;;;;;4.40;3.17;;;28.20;47.80;;;;;;5031291;28;20034;-71
2023/08/11 09:10:00;;;;;;;10.52;3.30;;;28.20;47.50;;;;;;5031777;28;20063;-72
2023/08/11 09:12:27;;;;;;;5.22;2.75;;;28.30;47.30;;;;;;5014020;28;20029;-72
2023/08/11 09:14:54;;;;;;;4.05;2.53;;;28.20;47.10;;;;;;5030526;28;20040;-71
2023/08/11 09:17:20;;;;;;;4.22;2.67;;;28.20;46.90;;;;;;5031525;28;20121;-72
2023/08/11 09:20:17;;;;;;;6.95;2.60;;;28.30;46.70;;;;;;5031203;28;20112;-70
2023/08/11 09:22:43;;;;;;;63.75;27.30;;;28.30;48.70;;;;;;5031159;28;20469;-69
2023/08/11 09:25:10;;;;;;;111.57;75.95;;;28.40;49.50;;;;;;5013211;28;20374;-71
2023/08/11 09:27:36;;;;;;;29.45;17.35;;;28.60;47.30;;;;;;5030873;28;20030;-70
2023/08/11 09:30:03;;;;;;;26.58;14.90;;;28.70;46.70;;;;;;5031203;28;20041;-69
2023/08/11 09:32:33;;;;;;;23.60;11.05;;;28.60;46.70;;;;;;5030824;28;20039;-68
2023/08/11 09:35:08;;;;;;;23.70;10.13;;;28.50;46.40;;;;;;5029592;28;20425;-67
2023/08/11 09:37:36;;;;;;;24.35;9.82;;;28.60;46.00;;;;;;5030704;28;20037;-68
2023/08/11 09:40:04;;;;;;;17.38;8.30;;;28.50;45.30;;;;;;5031317;28;20091;-70
2023/08/11 09:42:32;;;;;;;12.18;6.63;;;28.50;45.60;;;;;;5030637;28;20044;-68
2023/08/11 09:45:01;;;;;;;9.75;5.22;;;28.60;46.00;;;;;;5008596;28;20367;-67
2023/08/11 09:47:28;;;;;;;9.55;5.72;;;28.50;46.30;;;;;;5008467;28;20029;-71
2023/08/11 09:49:55;;;;;;;8.68;5.45;;;28.50;46.40;;;;;;5008744;28;20085;-68
2023/08/11 09:52:22;;;;;;;7.25;4.90;;;28.50;46.20;;;;;;5008302;28;20472;-67
2023/08/11 09:54:50;;;;;;;4.55;3.65;;;28.50;46.00;;;;;;5008509;28;20077;-68
2023/08/11 09:57:17;;;;;;;4.80;3.05;;;28.50;46.20;;;;;;5008317;28;20445;-66
2023/08/11 09:59:46;;;;;;;3.72;3.22;;;28.50;46.40;;;;;;5008068;28;20050;-67
2023/08/11 10:02:17;;;;;;;7.97;4.45;;;28.40;46.60;;;;;;5008214;28;20065;-68
2023/08/11 10:04:48;;;;;;;12.52;5.32;;;28.40;46.80;;;;;;5008556;28;20494;-67
2023/08/11 10:07:18;;;;;;;3.65;2.30;;;28.50;49.80;;;;;;5008441;28;20045;-66
2023/08/11 10:09:48;;;;;;;7.88;3.72;;;28.80;49.30;;;;;;5008565;28;20073;-66
2023/08/11 10:12:15;;;;;;;8.65;3.78;;;28.90;48.10;;;;;;4975336;28;20054;-67
2023/08/11 10:14:42;;;;;;;4.88;3.92;;;29.00;49.10;;;;;;5008551;28;20076;-66
2023/08/11 10:17:11;;;;;;;6.82;4.00;;;29.20;50.80;;;;;;5012344;28;20038;-66
2023/08/11 10:19:37;;;;;;;5.57;3.55;;;29.50;51.40;;;;;;5030771;28;20087;-66
2023/08/11 10:22:06;;;;;;;5.40;3.45;;;29.30;50.90;;;;;;5030489;28;20503;-68
2023/08/11 10:24:43;;;;;;;;;;;;;;;;;;;;;
2023/08/11 10:27:11;;;;;;;6.38;3.35;;;29.40;51.80;;;;;;4964018;28;20132;-72
2023/08/11 10:29:39;;;;;;;7.00;3.50;;;29.60;49.70;;;;;;5030258;28;20029;-71
2023/08/11 10:32:05;;;;;;;7.10;2.92;;;29.40;48.00;;;;;;5030487;28;20144;-68
2023/08/11 10:34:34;;;;;;;6.25;3.92;;;29.50;49.20;;;;;;5030369;28;20489;-71
2023/08/11 10:37:01;;;;;;;4.90;3.17;;;29.40;51.20;;;;;;5030440;28;20434;-70
2023/08/11 10:40:04;;;;;;;3.90;2.53;;;29.50;50.70;;;;;;5030310;28;20037;-71
2023/08/11 10:42:31;;;;;;;6.55;2.97;;;29.50;48.00;;;;;;5009445;28;20049;-70
2023/08/11 10:45:11;;;;;;;3.45;2.78;;;29.40;47.20;;;;;;5030155;28;20492;-71
2023/08/11 10:47:38;;;;;;;4.18;2.92;;;29.30;46.90;;;;;;5030192;28;20037;-70
2023/08/11 10:50:08;;;;;;;3.60;3.10;;;29.30;46.70;;;;;;5030067;28;20369;-70
2023/08/11 10:52:34;;;;;;;3.88;2.63;;;29.40;46.10;;;;;;5030257;28;20033;-72
2023/08/11 10:55:03;;;;;;;5.18;2.58;;;29.40;46.00;;;;;;5030410;28;20485;-70
2023/08/11 10:57:31;;;;;;;6.80;2.88;;;29.30;45.70;;;;;;5030327;28;20037;-70
2023/08/11 11:00:04;;;;;;;5.20;4.22;;;29.30;47.50;;;;;;5030074;28;20072;-68
2023/08/11 11:02:33;;;;;;;5.15;3.03;;;29.40;49.20;;;;;;5028951;28;20121;-69
2023/08/11 11:05:02;;;;;;;4.15;2.40;;;29.30;48.80;;;;;;5029943;28;20030;-68
2023/08/11 11:07:38;;;;;;;5.82;3.15;;;29.40;47.40;;;;;;5030393;28;20447;-71
2023/08/11 11:10:05;;;;;;;3.20;2.47;;;29.20;47.20;;;;;;5028702;28;20160;-70
2023/08/11 11:12:32;;;;;;;2.83;2.45;;;29.30;46.50;;;;;;5032503;28;20037;-69
2023/08/11 11:14:59;;;;;;;4.10;2.55;;;29.10;46.50;;;;;;5015812;28;20103;-70
2023/08/11 11:17:26;;;;;;;2.63;2.42;;;29.20;46.00;;;;;;5015768;28;20065;-70
2023/08/11 11:19:53;;;;;;;2.88;2.63;;;29.00;45.90;;;;;;5033547;28;20079;-68
2023/08/11 11:22:21;;;;;;;4.53;3.40;;;29.10;46.30;;;;;;5033501;28;20037;-70
2023/08/11 11:24:49;;;;;;;3.95;2.70;;;29.10;46.10;;;;;;5015683;28;20035;-71
2023/08/11 11:27:15;;;;;;;4.55;3.00;;;29.10;46.30;;;;;;5030767;28;20054;-71
2023/08/11 11:29:41;;;;;;;4.40;2.85;;;29.10;46.30;;;;;;5023424;28;20177;-72
2023/08/11 11:32:07;;;;;;;4.00;3.13;;;28.90;45.80;;;;;;5013271;28;20030;-72
2023/08/11 11:34:36;;;;;;;2.67;2.00;;;29.00;46.10;;;;;;5025836;28;20053;-72
2023/08/11 11:37:03;;;;;;;3.70;2.42;;;29.00;46.20;;;;;;5033164;28;20030;-72
2023/08/11 11:39:29;;;;;;;3.03;2.65;;;28.90;45.60;;;;;;5033244;28;20037;-71
2023/08/11 11:42:08;;;;;;;4.78;2.97;;;29.00;46.20;;;;;;5015391;28;20147;-71
2023/08/11 11:44:35;;;;;;;3.13;2.83;;;29.00;46.20;;;;;;5050955;28;20083;-72
2023/08/11 11:47:02;;;;;;;5.60;3.45;;;28.90;45.60;;;;;;5053031;28;20029;-73
2023/08/11 11:49:32;;;;;;;3.90;3.03;;;29.00;46.20;;;;;;5052836;28;20108;-71
2023/08/11 11:52:00;;;;;;;5.45;2.85;;;28.90;45.80;;;;;;5052710;28;20041;-70
2023/08/11 11:54:30;;;;;;;3.72;2.55;;;28.90;45.90;;;;;;5052862;28;20036;-70
2023/08/11 11:56:59;;;;;;;5.90;2.70;;;29.00;46.60;;;;;;5052704;28;20485;-70
2023/08/11 11:59:28;;;;;;;3.40;2.80;;;28.90;46.30;;;;;;5052769;28;20028;-70
2023/08/11 12:02:00;;;;;;;3.35;2.65;;;28.80;46.60;;;;;;5052477;28;20021;-73
2023/08/11 12:04:26;;;;;;;4.90;2.13;;;28.80;47.10;;;;;;5052530;28;20029;-70
2023/08/11 12:06:53;;;;;;;3.70;2.60;;;28.70;47.20;;;;;;5052681;28;20041;-71
2023/08/11 12:09:19;;;;;;;4.55;2.25;;;28.70;48.30;;;;;;5052653;28;20048;-72
2023/08/11 12:11:45;;;;;;;8.63;2.92;;;28.60;48.10;;;;;;5052511;28;20040;-71
2023/08/11 12:14:13;;;;;;;7.28;3.15;;;28.70;49.80;;;;;;5052349;28;20032;-69
2023/08/11 12:16:39;;;;;;;5.53;2.70;;;28.70;49.80;;;;;;5045848;28;20025;-71
2023/08/11 12:19:05;;;;;;;5.30;3.17;;;28.60;49.20;;;;;;5052299;28;20044;-71
2023/08/11 12:21:32;;;;;;;3.97;2.90;;;28.60;48.60;;;;;;5052570;28;20037;-70
2023/08/11 12:24:04;;;;;;;5.30;3.15;;;28.70;48.10;;;;;;5051661;28;20029;-70
2023/08/11 12:26:31;;;;;;;12.30;3.72;;;28.70;48.10;;;;;;5052232;28;20037;-69
2023/08/11 12:28:57;;;;;;;3.17;2.88;;;28.60;48.30;;;;;;5051968;28;20029;-69
2023/08/11 12:31:23;;;;;;;3.20;2.90;;;28.60;48.30;;;;;;5052297;28;20037;-70
2023/08/11 12:33:50;;;;;;;6.18;3.65;;;28.60;48.10;;;;;;5052006;28;20049;-71
2023/08/11 12:36:21;;;;;;;5.20;3.30;;;28.70;48.00;;;;;;5050680;28;20060;-73
2023/08/11 12:38:49;;;;;;;4.90;3.45;;;28.70;47.90;;;;;;5052268;28;20025;-73
2023/08/11 12:41:17;;;;;;;4.43;3.63;;;28.60;47.80;;;;;;5051189;28;20354;-72
2023/08/11 12:43:43;;;;;;;4.63;3.75;;;28.50;47.70;;;;;;5032116;28;20091;-74
2023/08/11 12:46:09;;;;;;;3.70;3.40;;;28.70;47.70;;;;;;5031813;28;20367;-72
2023/08/11 12:48:35;;;;;;;4.03;3.40;;;28.60;47.60;;;;;;5031956;28;20033;-73
2023/08/11 12:51:02;;;;;;;5.72;3.67;;;28.50;47.60;;;;;;5030843;28;20040;-72